Terminal Aerodrome Forecast
Issued by NWS Jackson, MS

Home | Current Version | Previous Version | Text Only | Print | Product List | Glossary On
Versions: 1 2 3 4 5 6 7 8 9 10 11 12
000
FTUS44 KJAN 161735
TAFJAN
TAF
KJAN 161735Z 1618/1718 35010KT 1SM -SN BR SCT013 OVC022
     FM162200 34013G17KT P6SM -SN BKN025
     FM170000 34012KT P6SM SCT025 OVC100
     FM170800 35010KT P6SM SKC=

USA.gov is the U.S. government's official web portal to all federal, state and local government web resources and services.